sensor_id;sensor_type;location;lat;lon;timestamp;temperature;humidity
25564;DHT22;13453;47.994;8.790;2022-10-18T00:05:18;22.70;59.80
25564;DHT22;13453;47.994;8.790;2022-10-18T00:15:20;22.70;59.50
25564;DHT22;13453;47.994;8.790;2022-10-18T00:25:22;22.70;59.60
25564;DHT22;13453;47.994;8.790;2022-10-18T00:35:24;22.70;59.40
25564;DHT22;13453;47.994;8.790;2022-10-18T00:45:26;22.70;59.40
25564;DHT22;13453;47.994;8.790;2022-10-18T00:55:30;22.70;59.10
25564;DHT22;13453;47.994;8.790;2022-10-18T01:05:40;22.70;59.20
25564;DHT22;13453;47.994;8.790;2022-10-18T01:15:53;22.70;59.20
25564;DHT22;13453;47.994;8.790;2022-10-18T01:36:20;22.70;59.30
25564;DHT22;13453;47.994;8.790;2022-10-18T01:46:24;22.60;59.10
25564;DHT22;13453;47.994;8.790;2022-10-18T01:56:51;22.60;59.10
25564;DHT22;13453;47.994;8.790;2022-10-18T02:07:02;22.60;59.10
25564;DHT22;13453;47.994;8.790;2022-10-18T02:17:08;22.70;59.20
25564;DHT22;13453;47.994;8.790;2022-10-18T02:27:12;22.60;59.10
25564;DHT22;13453;47.994;8.790;2022-10-18T02:37:14;22.60;59.10
25564;DHT22;13453;47.994;8.790;2022-10-18T02:47:17;22.60;59.10
25564;DHT22;13453;47.994;8.790;2022-10-18T02:57:19;22.60;59.10
25564;DHT22;13453;47.994;8.790;2022-10-18T03:07:21;22.60;58.90
25564;DHT22;13453;47.994;8.790;2022-10-18T03:17:23;22.60;59.10
25564;DHT22;13453;47.994;8.790;2022-10-18T03:27:25;22.60;58.90
25564;DHT22;13453;47.994;8.790;2022-10-18T03:37:27;22.60;59.00
25564;DHT22;13453;47.994;8.790;2022-10-18T03:47:28;22.60;59.10
25564;DHT22;13453;47.994;8.790;2022-10-18T03:57:30;22.60;59.00
25564;DHT22;13453;47.994;8.790;2022-10-18T04:07:33;22.60;58.90
25564;DHT22;13453;47.994;8.790;2022-10-18T04:17:40;22.70;59.00
25564;DHT22;13453;47.994;8.790;2022-10-18T04:27:43;22.50;58.70
25564;DHT22;13453;47.994;8.790;2022-10-18T04:37:44;22.50;58.70
25564;DHT22;13453;47.994;8.790;2022-10-18T04:47:46;22.50;58.80
25564;DHT22;13453;47.994;8.790;2022-10-18T04:57:48;22.50;58.60
25564;DHT22;13453;47.994;8.790;2022-10-18T05:07:50;22.50;58.50
25564;DHT22;13453;47.994;8.790;2022-10-18T05:17:52;22.50;58.50
25564;DHT22;13453;47.994;8.790;2022-10-18T05:27:53;22.50;58.70
25564;DHT22;13453;47.994;8.790;2022-10-18T05:37:55;22.50;58.50
25564;DHT22;13453;47.994;8.790;2022-10-18T05:47:57;22.50;58.40
25564;DHT22;13453;47.994;8.790;2022-10-18T05:57:59;22.50;58.50
25564;DHT22;13453;47.994;8.790;2022-10-18T06:08:01;22.50;58.60
25564;DHT22;13453;47.994;8.790;2022-10-18T06:18:07;22.50;58.40
25564;DHT22;13453;47.994;8.790;2022-10-18T06:28:08;22.50;58.40
25564;DHT22;13453;47.994;8.790;2022-10-18T06:38:12;22.50;58.40
25564;DHT22;13453;47.994;8.790;2022-10-18T06:48:15;22.60;58.30
25564;DHT22;13453;47.994;8.790;2022-10-18T06:58:17;22.70;58.90
25564;DHT22;13453;47.994;8.790;2022-10-18T07:08:19;22.80;59.10
25564;DHT22;13453;47.994;8.790;2022-10-18T07:18:21;22.90;59.10
25564;DHT22;13453;47.994;8.790;2022-10-18T07:28:23;22.90;59.20
25564;DHT22;13453;47.994;8.790;2022-10-18T07:38:25;22.90;59.20
25564;DHT22;13453;47.994;8.790;2022-10-18T07:48:27;22.80;59.40
25564;DHT22;13453;47.994;8.790;2022-10-18T07:58:31;22.80;59.70
25564;DHT22;13453;47.994;8.790;2022-10-18T08:08:34;22.80;59.70
25564;DHT22;13453;47.994;8.790;2022-10-18T08:18:36;22.80;60.10
25564;DHT22;13453;47.994;8.790;2022-10-18T08:28:39;22.80;60.10
25564;DHT22;13453;47.994;8.790;2022-10-18T08:38:49;22.80;60.10
25564;DHT22;13453;47.994;8.790;2022-10-18T08:48:54;22.80;60.10
25564;DHT22;13453;47.994;8.790;2022-10-18T08:58:57;22.90;60.20
25564;DHT22;13453;47.994;8.790;2022-10-18T09:39:59;23.20;60.50
25564;DHT22;13453;47.994;8.790;2022-10-18T09:50:29;23.20;60.50
25564;DHT22;13453;47.994;8.790;2022-10-18T10:00:37;23.20;60.30
25564;DHT22;13453;47.994;8.790;2022-10-18T10:10:45;23.30;60.40
25564;DHT22;13453;47.994;8.790;2022-10-18T10:20:52;23.30;60.40
25564;DHT22;13453;47.994;8.790;2022-10-18T10:31:28;23.30;60.30
25564;DHT22;13453;47.994;8.790;2022-10-18T10:41:30;23.30;60.40
25564;DHT22;13453;47.994;8.790;2022-10-18T10:51:39;23.30;60.60
25564;DHT22;13453;47.994;8.790;2022-10-18T11:01:41;23.20;60.50
25564;DHT22;13453;47.994;8.790;2022-10-18T11:11:54;23.20;60.50
25564;DHT22;13453;47.994;8.790;2022-10-18T11:21:59;23.20;60.50
25564;DHT22;13453;47.994;8.790;2022-10-18T11:52:48;23.20;60.50
25564;DHT22;13453;47.994;8.790;2022-10-18T12:23:50;23.10;61.60
25564;DHT22;13453;47.994;8.790;2022-10-18T12:33:57;23.20;61.80
25564;DHT22;13453;47.994;8.790;2022-10-18T12:44:15;23.10;61.50
25564;DHT22;13453;47.994;8.790;2022-10-18T12:54:36;23.10;61.30
25564;DHT22;13453;47.994;8.790;2022-10-18T13:04:38;23.00;61.10
25564;DHT22;13453;47.994;8.790;2022-10-18T13:15:03;23.00;60.80
25564;DHT22;13453;47.994;8.790;2022-10-18T13:25:53;23.00;60.60
25564;DHT22;13453;47.994;8.790;2022-10-18T14:07:18;22.90;60.20
25564;DHT22;13453;47.994;8.790;2022-10-18T14:27:31;22.90;60.20
25564;DHT22;13453;47.994;8.790;2022-10-18T14:37:35;22.90;60.20
25564;DHT22;13453;47.994;8.790;2022-10-18T14:47:37;22.90;60.20
25564;DHT22;13453;47.994;8.790;2022-10-18T14:57:40;23.00;60.30
25564;DHT22;13453;47.994;8.790;2022-10-18T15:07:42;23.00;61.30
25564;DHT22;13453;47.994;8.790;2022-10-18T15:17:47;23.00;61.40
25564;DHT22;13453;47.994;8.790;2022-10-18T15:27:55;23.00;61.60
25564;DHT22;13453;47.994;8.790;2022-10-18T15:38:16;23.10;61.80
25564;DHT22;13453;47.994;8.790;2022-10-18T15:48:32;23.00;61.50
25564;DHT22;13453;47.994;8.790;2022-10-18T15:58:47;23.00;61.20
25564;DHT22;13453;47.994;8.790;2022-10-18T16:08:51;23.00;61.10
25564;DHT22;13453;47.994;8.790;2022-10-18T16:18:53;23.00;62.20
25564;DHT22;13453;47.994;8.790;2022-10-18T16:28:56;22.90;62.70
25564;DHT22;13453;47.994;8.790;2022-10-18T16:39:02;23.00;69.20
25564;DHT22;13453;47.994;8.790;2022-10-18T16:49:04;22.90;67.70
25564;DHT22;13453;47.994;8.790;2022-10-18T16:59:06;22.90;64.50
25564;DHT22;13453;47.994;8.790;2022-10-18T17:09:14;23.10;64.50
25564;DHT22;13453;47.994;8.790;2022-10-18T17:19:16;22.90;68.30
25564;DHT22;13453;47.994;8.790;2022-10-18T17:29:18;22.80;66.00
25564;DHT22;13453;47.994;8.790;2022-10-18T17:39:19;22.80;65.90
25564;DHT22;13453;47.994;8.790;2022-10-18T17:49:21;22.80;64.90
25564;DHT22;13453;47.994;8.790;2022-10-18T17:59:23;22.80;64.80
25564;DHT22;13453;47.994;8.790;2022-10-18T18:09:25;22.80;64.70
25564;DHT22;13453;47.994;8.790;2022-10-18T18:19:28;22.80;63.00
25564;DHT22;13453;47.994;8.790;2022-10-18T18:29:30;22.80;62.30
25564;DHT22;13453;47.994;8.790;2022-10-18T18:39:32;22.80;62.00
25564;DHT22;13453;47.994;8.790;2022-10-18T18:49:36;22.80;61.80
25564;DHT22;13453;47.994;8.790;2022-10-18T18:59:38;22.80;61.20
25564;DHT22;13453;47.994;8.790;2022-10-18T19:09:40;22.80;60.90
25564;DHT22;13453;47.994;8.790;2022-10-18T19:19:43;22.80;60.60
25564;DHT22;13453;47.994;8.790;2022-10-18T19:29:46;22.70;60.00
25564;DHT22;13453;47.994;8.790;2022-10-18T19:39:49;22.80;60.10
25564;DHT22;13453;47.994;8.790;2022-10-18T19:49:51;22.80;60.70
25564;DHT22;13453;47.994;8.790;2022-10-18T19:59:54;22.80;60.60
25564;DHT22;13453;47.994;8.790;2022-10-18T20:09:57;22.80;61.20
25564;DHT22;13453;47.994;8.790;2022-10-18T20:19:59;22.80;62.20
25564;DHT22;13453;47.994;8.790;2022-10-18T20:30:01;22.80;61.30
25564;DHT22;13453;47.994;8.790;2022-10-18T20:40:07;22.80;61.30
25564;DHT22;13453;47.994;8.790;2022-10-18T20:50:09;22.80;61.10
25564;DHT22;13453;47.994;8.790;2022-10-18T21:00:11;22.80;61.00
25564;DHT22;13453;47.994;8.790;2022-10-18T21:10:13;22.80;61.00
25564;DHT22;13453;47.994;8.790;2022-10-18T21:20:15;22.80;60.90
25564;DHT22;13453;47.994;8.790;2022-10-18T21:30:17;22.80;60.60
25564;DHT22;13453;47.994;8.790;2022-10-18T21:40:19;22.80;60.50
25564;DHT22;13453;47.994;8.790;2022-10-18T21:50:21;22.80;60.40
25564;DHT22;13453;47.994;8.790;2022-10-18T22:00:23;22.80;60.10
25564;DHT22;13453;47.994;8.790;2022-10-18T22:10:25;22.80;60.10
25564;DHT22;13453;47.994;8.790;2022-10-18T22:20:27;22.80;60.10
25564;DHT22;13453;47.994;8.790;2022-10-18T22:30:29;22.70;60.00
25564;DHT22;13453;47.994;8.790;2022-10-18T22:40:31;22.70;60.00
25564;DHT22;13453;47.994;8.790;2022-10-18T22:50:32;22.70;60.00
25564;DHT22;13453;47.994;8.790;2022-10-18T23:00:37;22.80;59.90
25564;DHT22;13453;47.994;8.790;2022-10-18T23:10:43;22.70;59.70
25564;DHT22;13453;47.994;8.790;2022-10-18T23:20:45;22.70;59.30
25564;DHT22;13453;47.994;8.790;2022-10-18T23:30:47;22.70;59.40
25564;DHT22;13453;47.994;8.790;2022-10-18T23:40:49;22.70;59.40
25564;DHT22;13453;47.994;8.790;2022-10-18T23:50:51;22.70;59.30
